createdAt,value
2022-12-04T00:00:10.797Z,21.67
2022-12-04T00:02:37.637Z,22.85
2022-12-04T00:05:06.202Z,20.42
2022-12-04T00:07:33.169Z,22.98
2022-12-04T00:10:00.128Z,20.95
2022-12-04T00:12:27.306Z,22.10
2022-12-04T00:15:24.675Z,18.83
2022-12-04T00:17:40.766Z,21.05
2022-12-04T00:20:08.216Z,20.27
2022-12-04T00:22:35.452Z,19.83
2022-12-04T00:25:02.294Z,20.50
2022-12-04T00:27:28.999Z,20.45
2022-12-04T00:29:56.002Z,21.38
2022-12-04T00:32:22.977Z,21.50
2022-12-04T00:34:53.098Z,19.67
2022-12-04T00:37:19.822Z,19.92
2022-12-04T00:39:46.545Z,18.30
2022-12-04T00:42:13.388Z,20.88
2022-12-04T00:44:40.130Z,19.60
2022-12-04T00:47:06.882Z,19.40
2022-12-04T00:49:33.654Z,18.33
2022-12-04T00:52:00.377Z,20.33
2022-12-04T00:54:27.076Z,20.35
2022-12-04T00:56:53.824Z,20.98
2022-12-04T00:59:20.602Z,18.98
2022-12-04T01:01:47.361Z,20.75
2022-12-04T01:04:14.145Z,19.50
2022-12-04T01:06:40.872Z,18.40
2022-12-04T01:09:07.669Z,20.23
2022-12-04T01:11:34.455Z,20.90
2022-12-04T01:14:01.281Z,20.45
2022-12-04T01:16:37.332Z,18.52
2022-12-04T01:19:06.714Z,19.52
2022-12-04T01:21:33.851Z,18.75
2022-12-04T01:24:00.790Z,19.60
2022-12-04T01:26:28.216Z,18.73
2022-12-04T01:28:54.997Z,19.33
2022-12-04T01:31:23.148Z,20.10
2022-12-04T01:33:50.980Z,17.92
2022-12-04T01:36:21.279Z,20.90
2022-12-04T01:38:48.193Z,20.15
2022-12-04T01:41:16.845Z,19.75
2022-12-04T01:43:43.698Z,19.02
2022-12-04T01:46:10.974Z,18.92
2022-12-04T01:48:39.258Z,17.63
2022-12-04T01:51:24.717Z,18.77
2022-12-04T01:53:59.222Z,18.00
2022-12-04T01:56:37.212Z,18.98
2022-12-04T01:59:06.618Z,19.50
2022-12-04T02:01:40.408Z,17.15
2022-12-04T02:04:07.454Z,16.75
2022-12-04T02:06:34.219Z,17.20
2022-12-04T02:09:01.434Z,15.32
2022-12-04T02:11:44.188Z,19.92
2022-12-04T02:14:37.578Z,19.50
2022-12-04T02:17:22.352Z,17.20
2022-12-04T02:20:00.337Z,16.77
2022-12-04T02:22:38.777Z,17.92
2022-12-04T02:25:27.963Z,16.88
2022-12-04T02:28:18.114Z,17.88
2022-12-04T02:30:45.748Z,16.08
2022-12-04T02:33:30.401Z,17.38
2022-12-04T02:36:15.062Z,16.33
2022-12-04T02:38:57.170Z,18.85
2022-12-04T02:41:30.894Z,16.33
2022-12-04T02:44:20.179Z,15.23
2022-12-04T02:46:49.924Z,17.30
2022-12-04T02:49:27.197Z,16.95
2022-12-04T02:51:57.129Z,18.55
2022-12-04T02:54:33.738Z,14.15
2022-12-04T02:57:03.687Z,16.77
2022-12-04T02:59:42.501Z,16.45
2022-12-04T03:02:35.195Z,16.40
2022-12-04T03:05:10.226Z,17.52
2022-12-04T03:07:43.814Z,16.52
2022-12-04T03:10:17.360Z,16.08
2022-12-04T03:12:50.755Z,16.02
2022-12-04T03:15:28.161Z,15.45
2022-12-04T03:18:20.561Z,16.15
2022-12-04T03:20:52.854Z,16.95
2022-12-04T03:23:55.073Z,16.67
2022-12-04T03:26:43.702Z,16.17
2022-12-04T03:29:39.789Z,16.35
2022-12-04T03:32:24.110Z,16.42
2022-12-04T03:34:56.665Z,17.33
2022-12-04T03:37:32.459Z,16.50
2022-12-04T03:40:09.039Z,17.67
2022-12-04T03:42:48.167Z,16.60
2022-12-04T03:45:27.841Z,16.80
2022-12-04T03:48:04.049Z,17.70
2022-12-04T03:50:41.860Z,19.23
2022-12-04T03:53:15.841Z,17.92
2022-12-04T03:56:07.451Z,18.75
2022-12-04T03:58:38.204Z,16.65
2022-12-04T04:01:10.169Z,19.13
2022-12-04T04:03:45.837Z,18.77
2022-12-04T04:06:26.529Z,18.90
2022-12-04T04:08:58.314Z,18.35
2022-12-04T04:11:51.004Z,19.92
2022-12-04T04:14:42.928Z,17.30
2022-12-04T04:17:39.481Z,18.63
2022-12-04T04:20:30.832Z,18.65
2022-12-04T04:23:19.260Z,19.77
2022-12-04T04:25:47.222Z,17.75
2022-12-04T04:28:34.493Z,20.10
2022-12-04T04:31:10.217Z,18.38
2022-12-04T04:33:51.359Z,19.45
2022-12-04T04:36:54.080Z,20.17
2022-12-04T04:39:23.925Z,17.90
2022-12-04T04:42:07.531Z,18.63
2022-12-04T04:45:00.424Z,18.75
2022-12-04T04:47:44.870Z,19.00
2022-12-04T04:50:13.848Z,19.33
2022-12-04T04:52:46.382Z,18.05
2022-12-04T04:55:14.742Z,20.13
2022-12-04T04:57:41.490Z,18.20
2022-12-04T05:00:12.078Z,19.40
2022-12-04T05:02:39.158Z,18.90
2022-12-04T05:05:06.588Z,20.98
2022-12-04T05:07:33.368Z,18.83
2022-12-04T05:10:00.166Z,19.98
2022-12-04T05:12:26.951Z,19.88
2022-12-04T05:14:53.660Z,18.15
2022-12-04T05:17:20.380Z,18.45
2022-12-04T05:19:57.410Z,18.55
2022-12-04T05:22:28.626Z,18.10
2022-12-04T05:24:55.962Z,19.35
2022-12-04T05:27:23.785Z,18.15
2022-12-04T05:29:56.421Z,19.75
2022-12-04T05:32:25.182Z,19.48
2022-12-04T05:34:53.749Z,18.08
2022-12-04T05:37:21.018Z,19.02
2022-12-04T05:39:48.087Z,20.13
2022-12-04T05:42:15.409Z,16.92
2022-12-04T05:44:42.074Z,18.55
2022-12-04T05:47:08.980Z,18.10
2022-12-04T05:49:35.877Z,16.70
2022-12-04T05:52:05.002Z,18.20
2022-12-04T05:54:32.236Z,17.70
2022-12-04T05:56:59.179Z,17.48
2022-12-04T05:59:25.954Z,17.65
2022-12-04T06:01:52.762Z,18.15
2022-12-04T06:04:19.535Z,17.70
2022-12-04T06:06:46.422Z,17.13
2022-12-04T06:09:13.218Z,17.00
2022-12-04T06:11:41.577Z,16.58
2022-12-04T06:14:11.181Z,17.45
2022-12-04T06:16:40.990Z,18.73
2022-12-04T06:19:11.194Z,17.52
2022-12-04T06:21:39.849Z,16.40
2022-12-04T06:24:08.638Z,19.10
2022-12-04T06:26:35.389Z,16.15
2022-12-04T06:29:02.200Z,17.60
2022-12-04T06:31:29.919Z,16.45
2022-12-04T06:33:58.799Z,16.20
2022-12-04T06:36:26.418Z,17.45
2022-12-04T06:38:55.611Z,17.88
2022-12-04T06:41:23.141Z,16.58
2022-12-04T06:43:51.756Z,17.80
2022-12-04T06:46:21.255Z,19.60
2022-12-04T06:48:48.309Z,18.15
2022-12-04T06:51:29.167Z,17.77
2022-12-04T06:53:56.567Z,20.73
2022-12-04T06:56:26.207Z,20.27
2022-12-04T06:58:55.295Z,20.02
2022-12-04T07:01:25.704Z,18.45
2022-12-04T07:03:53.184Z,18.65
2022-12-04T07:06:29.750Z,16.38
2022-12-04T07:09:02.685Z,16.02
2022-12-04T07:11:31.837Z,15.25
2022-12-04T07:13:58.638Z,16.02
2022-12-04T07:16:26.480Z,16.08
2022-12-04T07:18:54.149Z,14.52
2022-12-04T07:21:23.541Z,13.82
2022-12-04T07:23:52.354Z,13.40
2022-12-04T07:26:19.994Z,14.27
2022-12-04T07:28:47.308Z,13.32
2022-12-04T07:31:19.396Z,15.88
2022-12-04T07:33:47.028Z,14.57
2022-12-04T07:36:16.780Z,15.15
2022-12-04T07:38:43.777Z,16.30
2022-12-04T07:41:12.736Z,16.50
2022-12-04T07:43:39.907Z,16.23
2022-12-04T07:46:13.010Z,16.25
2022-12-04T07:48:40.202Z,17.05
2022-12-04T07:51:16.228Z,15.27
2022-12-04T07:53:43.947Z,15.48
2022-12-04T07:56:12.142Z,15.90
2022-12-04T07:58:39.523Z,15.00
2022-12-04T08:01:24.975Z,15.20
2022-12-04T08:03:54.810Z,17.67
2022-12-04T08:06:23.274Z,15.35
2022-12-04T08:08:50.749Z,16.10
2022-12-04T08:11:22.180Z,16.65
2022-12-04T08:13:53.637Z,16.20
2022-12-04T08:16:20.415Z,17.35
2022-12-04T08:18:48.632Z,16.55
2022-12-04T08:21:20.564Z,15.65
2022-12-04T08:23:49.494Z,16.70
2022-12-04T08:26:17.681Z,17.10
2022-12-04T08:28:44.539Z,18.00
2022-12-04T08:31:16.046Z,17.73
2022-12-04T08:33:43.674Z,16.52
2022-12-04T08:36:12.457Z,16.73
2022-12-04T08:38:39.466Z,17.38
2022-12-04T08:41:08.511Z,19.38
2022-12-04T08:43:35.361Z,20.80
2022-12-04T08:46:04.306Z,19.77
2022-12-04T08:48:31.422Z,19.42
2022-12-04T08:50:58.453Z,19.20
2022-12-04T08:53:25.352Z,20.15
2022-12-04T08:55:52.689Z,18.48
2022-12-04T08:58:20.471Z,21.58
2022-12-04T09:00:47.715Z,19.63
2022-12-04T09:03:17.194Z,18.75
2022-12-04T09:05:45.985Z,18.38
2022-12-04T09:08:16.922Z,19.83
2022-12-04T09:10:44.401Z,16.33
2022-12-04T09:13:11.341Z,17.83
2022-12-04T09:15:41.608Z,20.13
2022-12-04T09:18:09.244Z,16.77
2022-12-04T09:20:36.789Z,18.17
2022-12-04T09:23:05.566Z,16.83
2022-12-04T09:25:36.509Z,15.70
2022-12-04T09:28:04.196Z,15.20
2022-12-04T09:30:31.119Z,14.82
2022-12-04T09:32:57.868Z,15.98
2022-12-04T09:35:24.623Z,16.13
2022-12-04T09:37:51.405Z,15.73
2022-12-04T09:40:39.449Z,15.38
2022-12-04T09:43:41.334Z,14.43
2022-12-04T09:46:18.855Z,16.20
2022-12-04T09:48:48.712Z,15.93
2022-12-04T09:51:20.141Z,18.02
2022-12-04T09:54:03.085Z,14.30
2022-12-04T09:56:32.189Z,13.43
2022-12-04T09:59:10.238Z,15.90
2022-12-04T10:02:12.394Z,14.02
2022-12-04T10:04:39.217Z,14.57
2022-12-04T10:07:14.820Z,15.00
2022-12-04T10:09:59.383Z,13.63
2022-12-04T10:12:36.905Z,13.88
2022-12-04T10:15:21.779Z,16.42
2022-12-04T10:18:10.023Z,14.35
2022-12-04T10:20:46.811Z,15.85
2022-12-04T10:23:25.446Z,14.98
2022-12-04T10:25:55.178Z,14.05
2022-12-04T10:28:31.366Z,12.60
2022-12-04T10:31:01.427Z,15.27
2022-12-04T10:33:39.574Z,13.68
2022-12-04T10:36:07.241Z,14.23
2022-12-04T10:38:53.049Z,13.75
2022-12-04T10:41:38.066Z,14.20
2022-12-04T10:44:04.860Z,19.38
2022-12-04T10:46:34.352Z,17.38
2022-12-04T10:49:03.256Z,15.38
2022-12-04T10:51:38.155Z,12.90
2022-12-04T10:54:42.912Z,13.90
2022-12-04T10:57:11.777Z,12.75
2022-12-04T10:59:56.099Z,11.73
2022-12-04T11:02:27.249Z,13.80
2022-12-04T11:05:00.372Z,13.23
2022-12-04T11:07:36.249Z,14.05
2022-12-04T11:10:22.645Z,13.93
2022-12-04T11:12:55.934Z,14.85
2022-12-04T11:15:23.345Z,14.15
2022-12-04T11:17:52.773Z,14.55
2022-12-04T11:20:21.412Z,14.27
2022-12-04T11:22:59.788Z,12.55
2022-12-04T11:25:30.820Z,13.07
2022-12-04T11:28:02.419Z,13.05
2022-12-04T11:30:38.237Z,14.90
2022-12-04T11:33:08.035Z,14.25
2022-12-04T11:35:34.897Z,14.93
2022-12-04T11:38:13.246Z,14.38
2022-12-04T11:40:45.467Z,14.98
2022-12-04T11:43:17.989Z,14.80
2022-12-04T11:46:03.044Z,14.60
2022-12-04T11:48:31.989Z,13.52
2022-12-04T11:51:51.814Z,15.18
2022-12-04T11:54:39.512Z,14.40
2022-12-04T11:57:33.907Z,15.07
2022-12-04T12:00:09.219Z,12.73
2022-12-04T12:03:15.062Z,13.82
2022-12-04T12:06:00.434Z,13.73
2022-12-04T12:08:46.014Z,12.07
2022-12-04T12:11:24.751Z,12.05
2022-12-04T12:14:14.439Z,12.57
2022-12-04T12:16:48.550Z,12.65
2022-12-04T12:19:41.270Z,16.83
2022-12-04T12:22:26.177Z,12.48
2022-12-04T12:25:21.114Z,12.70
2022-12-04T12:28:16.455Z,13.90
2022-12-04T12:31:05.945Z,12.93
2022-12-04T12:33:58.941Z,12.65
2022-12-04T12:36:30.502Z,12.20
2022-12-04T12:39:07.202Z,14.25
2022-12-04T12:41:53.057Z,12.65
2022-12-04T12:44:27.317Z,10.20
2022-12-04T12:46:59.334Z,11.27
2022-12-04T12:49:41.720Z,12.30
2022-12-04T12:52:29.680Z,11.85
2022-12-04T12:55:04.113Z,10.88
2022-12-04T12:57:38.164Z,11.38
2022-12-04T13:00:22.675Z,12.27
2022-12-04T13:03:26.095Z,11.02
2022-12-04T13:05:59.599Z,11.63
2022-12-04T13:08:37.871Z,12.73
2022-12-04T13:11:16.066Z,11.55
2022-12-04T13:13:53.223Z,10.32
2022-12-04T13:16:28.298Z,12.85
2022-12-04T13:19:06.809Z,12.13
2022-12-04T13:21:43.982Z,11.80
2022-12-04T13:24:55.666Z,9.98
2022-12-04T13:27:37.101Z,11.10
2022-12-04T13:30:20.726Z,11.77
2022-12-04T13:33:18.404Z,10.70
2022-12-04T13:35:57.886Z,12.00
2022-12-04T13:38:33.629Z,11.02
2022-12-04T13:41:07.044Z,11.60
2022-12-04T13:43:42.770Z,12.93
2022-12-04T13:46:30.472Z,15.18
2022-12-04T13:49:15.933Z,14.70
2022-12-04T13:51:43.442Z,11.85
2022-12-04T13:54:13.252Z,13.13
2022-12-04T13:56:41.936Z,11.20
2022-12-04T13:59:26.903Z,10.95
2022-12-04T14:02:18.998Z,11.38
2022-12-04T14:04:52.836Z,13.23
2022-12-04T14:07:40.658Z,11.55
2022-12-04T14:10:26.791Z,13.88
2022-12-04T14:13:21.708Z,14.65
2022-12-04T14:15:49.068Z,12.80
2022-12-04T14:18:29.333Z,13.40
2022-12-04T14:21:05.419Z,11.52
2022-12-04T14:23:42.726Z,12.93
2022-12-04T14:27:03.166Z,13.25
2022-12-04T14:29:30.721Z,12.18
2022-12-04T14:32:08.522Z,12.25
2022-12-04T14:34:37.469Z,11.13
2022-12-04T14:37:05.811Z,12.00
2022-12-04T14:39:37.243Z,13.00
2022-12-04T14:42:24.944Z,14.43
2022-12-04T14:45:00.690Z,12.60
2022-12-04T14:47:58.187Z,12.60
2022-12-04T14:50:30.779Z,14.38
2022-12-04T14:53:03.250Z,12.77
2022-12-04T14:55:35.819Z,12.77
2022-12-04T14:58:30.166Z,14.43
2022-12-04T15:01:28.934Z,14.48
2022-12-04T15:04:00.446Z,12.48
2022-12-04T15:06:33.332Z,15.00
2022-12-04T15:09:20.874Z,14.90
2022-12-04T15:12:15.655Z,13.95
2022-12-04T15:14:50.109Z,15.20
2022-12-04T15:17:18.724Z,14.43
2022-12-04T15:19:45.952Z,14.65
2022-12-04T15:22:27.244Z,15.27
2022-12-04T15:24:55.326Z,14.20
2022-12-04T15:27:31.707Z,15.48
2022-12-04T15:30:00.789Z,15.82
2022-12-04T15:32:30.754Z,15.77
2022-12-04T15:35:09.197Z,14.43
2022-12-04T15:37:39.508Z,19.00
2022-12-04T15:40:08.656Z,15.55
2022-12-04T15:42:35.373Z,15.90
2022-12-04T15:45:08.102Z,15.60
2022-12-04T15:47:39.199Z,14.77
2022-12-04T15:50:17.960Z,14.05
2022-12-04T15:53:05.734Z,13.18
2022-12-04T15:55:49.419Z,15.02
2022-12-04T15:58:21.851Z,13.93
2022-12-04T16:00:55.432Z,14.25
2022-12-04T16:03:27.721Z,14.20
2022-12-04T16:06:13.806Z,13.27
2022-12-04T16:08:42.479Z,14.52
2022-12-04T16:11:18.069Z,14.00
2022-12-04T16:13:44.867Z,14.40
2022-12-04T16:16:23.006Z,14.38
2022-12-04T16:18:49.872Z,12.48
2022-12-04T16:21:22.361Z,13.73
2022-12-04T16:23:49.090Z,14.20
2022-12-04T16:26:20.558Z,14.90
2022-12-04T16:28:47.587Z,13.70
2022-12-04T16:31:16.114Z,13.85
2022-12-04T16:33:42.924Z,13.38
2022-12-04T16:36:11.446Z,12.75
2022-12-04T16:38:38.177Z,11.73
2022-12-04T16:41:05.848Z,12.43
2022-12-04T16:43:32.612Z,11.18
2022-12-04T16:46:01.298Z,11.18
2022-12-04T16:48:29.643Z,12.45
2022-12-04T16:50:56.463Z,11.15
2022-12-04T16:53:23.436Z,11.30
2022-12-04T16:55:51.953Z,11.52
2022-12-04T16:58:20.523Z,10.95
2022-12-04T17:00:55.103Z,11.57
2022-12-04T17:03:28.491Z,11.35
2022-12-04T17:05:55.902Z,13.90
2022-12-04T17:08:23.398Z,15.82
2022-12-04T17:10:50.494Z,10.30
2022-12-04T17:13:18.697Z,11.30
2022-12-04T17:15:45.711Z,11.27
2022-12-04T17:18:17.726Z,10.18
2022-12-04T17:20:47.467Z,11.82
2022-12-04T17:23:14.331Z,10.85
2022-12-04T17:25:41.139Z,10.55
2022-12-04T17:28:08.275Z,11.07
2022-12-04T17:30:36.379Z,10.25
2022-12-04T17:33:04.350Z,10.52
2022-12-04T17:35:31.247Z,11.40
2022-12-04T17:38:03.928Z,13.70
2022-12-04T17:40:33.298Z,12.57
2022-12-04T17:43:00.123Z,15.65
2022-12-04T17:45:26.906Z,15.25
2022-12-04T17:47:53.625Z,14.05
2022-12-04T17:50:20.643Z,13.93
2022-12-04T17:52:47.496Z,13.73
2022-12-04T17:55:14.355Z,11.07
2022-12-04T17:57:41.079Z,12.88
2022-12-04T18:00:08.749Z,20.25
2022-12-04T18:02:36.299Z,23.55
2022-12-04T18:05:03.206Z,15.90
2022-12-04T18:07:31.470Z,13.82
2022-12-04T18:09:58.612Z,15.52
2022-12-04T18:12:25.614Z,18.95
2022-12-04T18:14:53.340Z,21.83
2022-12-04T18:17:20.931Z,12.98
2022-12-04T18:19:47.662Z,11.98
2022-12-04T18:22:14.398Z,10.75
2022-12-04T18:24:41.271Z,13.90
2022-12-04T18:27:08.575Z,15.60
2022-12-04T18:29:35.371Z,12.73
2022-12-04T18:32:02.188Z,13.13
2022-12-04T18:34:29.035Z,13.32
2022-12-04T18:36:55.775Z,14.65
2022-12-04T18:39:25.353Z,14.90
2022-12-04T18:41:55.935Z,14.15
2022-12-04T18:44:23.383Z,13.68
2022-12-04T18:46:50.224Z,13.48
2022-12-04T18:49:17.151Z,15.48
2022-12-04T18:51:49.580Z,13.05
2022-12-04T18:54:22.464Z,12.77
2022-12-04T18:56:49.744Z,14.50
2022-12-04T18:59:21.935Z,15.45
2022-12-04T19:01:50.399Z,15.30
2022-12-04T19:04:19.379Z,22.92
2022-12-04T19:06:51.908Z,20.60
2022-12-04T19:09:40.734Z,18.83
2022-12-04T19:12:11.547Z,15.40
2022-12-04T19:14:39.764Z,16.98
2022-12-04T19:17:06.967Z,14.13
2022-12-04T19:19:33.787Z,14.25
2022-12-04T19:22:02.085Z,16.35
2022-12-04T19:24:28.989Z,15.98
2022-12-04T19:26:55.790Z,15.90
2022-12-04T19:29:22.575Z,16.67
2022-12-04T19:31:50.768Z,16.42
2022-12-04T19:34:19.154Z,16.80
2022-12-04T19:36:46.081Z,16.75
2022-12-04T19:39:12.880Z,18.00
2022-12-04T19:41:41.318Z,16.98
2022-12-04T19:44:46.670Z,18.73
2022-12-04T19:46:58.698Z,17.23
2022-12-04T19:49:25.603Z,16.92
2022-12-04T19:51:52.401Z,16.73
2022-12-04T19:54:19.301Z,15.68
2022-12-04T19:56:50.993Z,15.32
2022-12-04T19:59:19.614Z,16.10
2022-12-04T20:01:46.598Z,14.27
2022-12-04T20:04:13.433Z,15.82
2022-12-04T20:06:43.048Z,15.95
2022-12-04T20:09:14.226Z,14.85
2022-12-04T20:11:41.433Z,16.48
2022-12-04T20:14:08.597Z,16.65
2022-12-04T20:16:36.897Z,14.80
2022-12-04T20:19:06.209Z,15.07
2022-12-04T20:21:33.203Z,15.32
2022-12-04T20:24:06.458Z,13.60
2022-12-04T20:26:37.302Z,12.90
2022-12-04T20:29:05.609Z,14.20
2022-12-04T20:31:37.843Z,15.10
2022-12-04T20:34:06.931Z,15.02
2022-12-04T20:36:37.606Z,12.43
2022-12-04T20:39:05.314Z,14.80
2022-12-04T20:41:33.255Z,13.75
2022-12-04T20:44:01.968Z,13.50
2022-12-04T20:46:32.238Z,12.38
2022-12-04T20:49:00.950Z,13.27
2022-12-04T20:51:31.489Z,13.70
2022-12-04T20:53:59.328Z,13.98
2022-12-04T20:56:31.195Z,15.18
2022-12-04T20:59:00.468Z,14.88
2022-12-04T21:01:28.260Z,15.00
2022-12-04T21:03:55.162Z,13.68
2022-12-04T21:06:34.859Z,12.65
2022-12-04T21:09:05.950Z,12.52
2022-12-04T21:12:00.610Z,11.52
2022-12-04T21:14:49.175Z,11.85
2022-12-04T21:17:18.917Z,11.63
2022-12-04T21:19:47.799Z,11.25
2022-12-04T21:22:14.605Z,11.32
2022-12-04T21:24:42.199Z,13.30
2022-12-04T21:27:10.994Z,13.40
2022-12-04T21:29:40.099Z,12.02
2022-12-04T21:32:07.251Z,12.10
2022-12-04T21:34:34.255Z,10.32
2022-12-04T21:37:01.042Z,11.63
2022-12-04T21:39:27.860Z,11.88
2022-12-04T21:42:13.411Z,10.10
2022-12-04T21:44:40.288Z,10.38
2022-12-04T21:47:07.070Z,9.50
2022-12-04T21:49:33.878Z,9.52
2022-12-04T21:52:00.613Z,10.13
2022-12-04T21:54:28.462Z,9.75
2022-12-04T21:56:56.070Z,11.35
2022-12-04T21:59:23.403Z,10.02
2022-12-04T22:01:50.262Z,10.40
2022-12-04T22:04:17.055Z,11.07
2022-12-04T22:06:43.941Z,9.52
2022-12-04T22:09:12.675Z,10.35
2022-12-04T22:11:43.648Z,10.13
2022-12-04T22:14:11.447Z,9.25
2022-12-04T22:16:42.519Z,9.40
2022-12-04T22:19:11.557Z,10.45
2022-12-04T22:21:38.792Z,10.25
2022-12-04T22:24:06.103Z,9.85
2022-12-04T22:26:33.365Z,10.63
2022-12-04T22:29:00.138Z,9.57
2022-12-04T22:31:28.536Z,10.15
2022-12-04T22:33:57.437Z,9.68
2022-12-04T22:36:30.771Z,11.25
2022-12-04T22:39:12.918Z,11.73
2022-12-04T22:41:39.707Z,11.73
2022-12-04T22:44:06.470Z,12.25
2022-12-04T22:46:33.453Z,11.32
2022-12-04T22:49:00.578Z,10.82
2022-12-04T22:51:27.778Z,10.10
2022-12-04T22:53:56.882Z,10.27
2022-12-04T22:56:26.772Z,10.88
2022-12-04T22:58:54.678Z,10.45
2022-12-04T23:01:30.363Z,11.20
2022-12-04T23:03:57.529Z,10.77
2022-12-04T23:06:26.280Z,10.02
2022-12-04T23:09:05.697Z,10.63
2022-12-04T23:11:32.683Z,10.10
2022-12-04T23:14:02.406Z,10.30
2022-12-04T23:16:31.458Z,9.63
2022-12-04T23:18:58.922Z,9.45
2022-12-04T23:21:26.141Z,8.60
2022-12-04T23:23:54.452Z,8.77
2022-12-04T23:26:24.898Z,8.10
2022-12-04T23:28:52.059Z,9.48
2022-12-04T23:31:19.468Z,8.27
2022-12-04T23:33:46.264Z,7.22
2022-12-04T23:36:14.040Z,7.88
2022-12-04T23:38:42.001Z,7.40
2022-12-04T23:41:11.711Z,7.38
2022-12-04T23:43:38.987Z,7.25
2022-12-04T23:46:10.953Z,8.77
2022-12-04T23:48:39.095Z,9.50
2022-12-04T23:51:06.207Z,9.35
2022-12-04T23:53:32.946Z,8.73
2022-12-04T23:56:08.353Z,8.25
2022-12-04T23:58:36.215Z,8.55
